Faneromeni — SVKG — position and weather

sailwx.info

Track history (hours):
 
Tides and Currents Weather Stations Pressure Air Temp Water Temp Dewpoint Dewpoint Depression Visibility Wind Speed Wind Dir Waves Ship Positions

Faneromeni

Last reported at 2016-Jul-25 03:09 UTC. Time now 2016-Jul-29 23:34 UTC.
Position N 31°27' E 032°23'.

Length 230 m; draft 13 m.

Type: Cargo ship. MMSI: 240576000.

Date/timePositionNaut miles runAvg speedWind from/ knotsBaromVisibWave heightAir tempDewpointWater temp
2016-Jul-25 03:09N 31°27' E 032°23'4 7.1
2016-Jul-25 02:33N 31°27' E 032°18'0 0.1
2016-Jul-24 23:07N 31°27' E 032°18'0 0.0
2016-Jul-24 20:07N 31°27' E 032°18'0 0.0
2016-Jul-24 19:31N 31°27' E 032°18'0 0.0
2016-Jul-24 18:28N 31°27' E 032°18'13 6.0
2016-Jul-24 16:19N 31°36' E 032°08'3111.4
2016-Jul-24 13:34N 31°52' E 031°36'3511.6
2016-Jul-24 10:32N 32°04' E 030°57'9411.1
2016-Jul-24 02:06N 32°33' E 029°12'  
2016-Jul-21 10:20N 36°18' E 014°58'911.7
2016-Jul-21 09:33N 36°21' E 014°47'1211.6
2016-Jul-21 08:34N 36°25' E 014°33'1111.5
2016-Jul-21 07:34N 36°28' E 014°19'1211.6
2016-Jul-21 06:33N 36°32' E 014°06'1211.8
2016-Jul-21 05:34N 36°35' E 013°52'1211.7
2016-Jul-21 04:33N 36°39' E 013°38'1211.6
2016-Jul-21 03:33N 36°42' E 013°24'4611.6
2016-Jul-20 23:33N 36°56' E 012°29'1111.6
2016-Jul-20 22:34N 36°60' E 012°15'1211.5
2016-Jul-20 21:33N 37°03' E 012°02'1111.4
2016-Jul-20 20:34N 37°08' E 011°49'1111.0
2016-Jul-20 19:33N 37°13' E 011°36'1111.2
2016-Jul-20 18:33N 37°17' E 011°23'1611.4
2016-Jul-20 17:09N 37°24' E 011°05'1111.5
2016-Jul-20 16:11N 37°27' E 010°51'711.6
2016-Jul-20 15:33N 37°28' E 010°42'1211.6
2016-Jul-20 14:32N 37°31' E 010°28'1211.5
2016-Jul-20 13:32N 37°33' E 010°14'1111.6
2016-Jul-20 12:33N 37°33' E 009°59'1111.5
2016-Jul-20 11:33N 37°35' E 009°45'1211.5
2016-Jul-20 10:33N 37°35' E 009°30'1211.7
2016-Jul-20 09:33N 37°36' E 009°16'3611.9
2016-Jul-20 06:33N 37°35' E 008°31'1111.3
2016-Jul-20 05:33N 37°34' E 008°16'3511.5
2016-Jul-20 02:32N 37°31' E 007°33'1511.6
2016-Jul-20 01:12N 37°30' E 007°13'6511.5
2016-Jul-19 19:31N 37°25' E 005°51'1111.6
2016-Jul-19 18:34N 37°24' E 005°37'3511.6
2016-Jul-19 15:33N 37°21' E 004°54'1211.7
2016-Jul-19 14:33N 37°20' E 004°39'1111.3
2016-Jul-19 13:33N 37°19' E 004°25'2211.0
2016-Jul-19 11:31N 37°16' E 003°57'2511.5
2016-Jul-19 09:22N 37°12' E 003°27'1011.6
2016-Jul-19 08:31N 37°10' E 003°14'1211.6
2016-Jul-19 07:31N 37°08' E 003°00'3511.5
2016-Jul-19 04:27N 37°02' E 002°17'1010.9
2016-Jul-19 03:32N 36°60' E 002°04'1110.9
2016-Jul-19 02:34N 36°58' E 001°51'1411.1
2016-Jul-19 01:18N 36°55' E 001°34'2011.0
2016-Jul-18 23:30N 36°52' E 001°10'1310.8
2016-Jul-18 22:16N 36°49' E 000°54'811.2
2016-Jul-18 21:34N 36°48' E 000°44'1110.7
2016-Jul-18 20:33N 36°46' E 000°31'1110.6
2016-Jul-18 19:33N 36°44' E 000°18'1010.0
2016-Jul-18 18:33N 36°42' E 000°05'1010.3
2016-Jul-18 17:33N 36°40' W 000°07'1010.2
2016-Jul-18 16:33N 36°38' W 000°20'1010.4
2016-Jul-18 15:34N 36°36' W 000°32'1010.2
2016-Jul-18 14:33N 36°34' W 000°45'2210.6
2016-Jul-18 12:31N 36°31' W 001°11'1210.9
2016-Jul-18 11:24N 36°28' W 001°26'2010.5
2016-Jul-18 09:28N 36°25' W 001°51'3110.2
2016-Jul-18 06:25N 36°19' W 002°29'1910.2
2016-Jul-18 04:34N 36°17' W 002°52'11511.4
2016-Jul-17 18:27N 36°00' W 005°13'910.1
2016-Jul-17 17:34N 35°59' W 005°24'1211.1
2016-Jul-17 16:31N 35°55' W 005°37'1110.5
2016-Jul-17 15:27N 35°55' W 005°51'188 9.0
2016-Jul-16 18:33N 36°04' W 009°44'13511.1
2016-Jul-16 06:24N 36°11' W 012°31'6911.5
2016-Jul-16 00:23N 36°15' W 013°56'17211.5
2016-Jul-15 09:32N 36°25' W 017°29'3611.2
2016-Jul-15 06:18N 36°27' W 018°14'811.2
2016-Jul-15 05:33N 36°27' W 018°24'1111.0
2016-Jul-15 04:33N 36°28' W 018°38'  
Track history (hours):
 
Tides and Currents Weather Stations Pressure Air Temp Water Temp Dewpoint Dewpoint Depression Visibility Wind Speed Wind Dir Waves Ship Positions

Faneromeni

Last reported at 2016-Jul-25 03:09 UTC. Time now 2016-Jul-29 23:34 UTC.
Position N 31°27' E 032°23'.

Length 230 m; draft 13 m.

Type: Cargo ship. MMSI: 240576000.

Date/timePositionNaut miles runAvg speedWind from/ knotsBaromVisibWave heightAir tempDewpointWater temp
2016-Jul-25 03:09N 31°27' E 032°23'4 7.1
2016-Jul-25 02:33N 31°27' E 032°18'0 0.1
2016-Jul-24 23:07N 31°27' E 032°18'0 0.0
2016-Jul-24 20:07N 31°27' E 032°18'0 0.0
2016-Jul-24 19:31N 31°27' E 032°18'0 0.0
2016-Jul-24 18:28N 31°27' E 032°18'13 6.0
2016-Jul-24 16:19N 31°36' E 032°08'3111.4
2016-Jul-24 13:34N 31°52' E 031°36'3511.6
2016-Jul-24 10:32N 32°04' E 030°57'9411.1
2016-Jul-24 02:06N 32°33' E 029°12'  
2016-Jul-21 10:20N 36°18' E 014°58'911.7
2016-Jul-21 09:33N 36°21' E 014°47'1211.6
2016-Jul-21 08:34N 36°25' E 014°33'1111.5
2016-Jul-21 07:34N 36°28' E 014°19'1211.6
2016-Jul-21 06:33N 36°32' E 014°06'1211.8
2016-Jul-21 05:34N 36°35' E 013°52'1211.7
2016-Jul-21 04:33N 36°39' E 013°38'1211.6
2016-Jul-21 03:33N 36°42' E 013°24'4611.6
2016-Jul-20 23:33N 36°56' E 012°29'1111.6
2016-Jul-20 22:34N 36°60' E 012°15'1211.5
2016-Jul-20 21:33N 37°03' E 012°02'1111.4
2016-Jul-20 20:34N 37°08' E 011°49'1111.0
2016-Jul-20 19:33N 37°13' E 011°36'1111.2
2016-Jul-20 18:33N 37°17' E 011°23'1611.4
2016-Jul-20 17:09N 37°24' E 011°05'1111.5
2016-Jul-20 16:11N 37°27' E 010°51'711.6
2016-Jul-20 15:33N 37°28' E 010°42'1211.6
2016-Jul-20 14:32N 37°31' E 010°28'1211.5
2016-Jul-20 13:32N 37°33' E 010°14'1111.6
2016-Jul-20 12:33N 37°33' E 009°59'1111.5
2016-Jul-20 11:33N 37°35' E 009°45'1211.5
2016-Jul-20 10:33N 37°35' E 009°30'1211.7
2016-Jul-20 09:33N 37°36' E 009°16'3611.9
2016-Jul-20 06:33N 37°35' E 008°31'1111.3
2016-Jul-20 05:33N 37°34' E 008°16'3511.5
2016-Jul-20 02:32N 37°31' E 007°33'1511.6
2016-Jul-20 01:12N 37°30' E 007°13'6511.5
2016-Jul-19 19:31N 37°25' E 005°51'1111.6
2016-Jul-19 18:34N 37°24' E 005°37'3511.6
2016-Jul-19 15:33N 37°21' E 004°54'1211.7
2016-Jul-19 14:33N 37°20' E 004°39'1111.3
2016-Jul-19 13:33N 37°19' E 004°25'2211.0
2016-Jul-19 11:31N 37°16' E 003°57'2511.5
2016-Jul-19 09:22N 37°12' E 003°27'1011.6
2016-Jul-19 08:31N 37°10' E 003°14'1211.6
2016-Jul-19 07:31N 37°08' E 003°00'3511.5
2016-Jul-19 04:27N 37°02' E 002°17'1010.9
2016-Jul-19 03:32N 36°60' E 002°04'1110.9
2016-Jul-19 02:34N 36°58' E 001°51'1411.1
2016-Jul-19 01:18N 36°55' E 001°34'2011.0
2016-Jul-18 23:30N 36°52' E 001°10'1310.8
2016-Jul-18 22:16N 36°49' E 000°54'811.2
2016-Jul-18 21:34N 36°48' E 000°44'1110.7
2016-Jul-18 20:33N 36°46' E 000°31'1110.6
2016-Jul-18 19:33N 36°44' E 000°18'1010.0
2016-Jul-18 18:33N 36°42' E 000°05'1010.3
2016-Jul-18 17:33N 36°40' W 000°07'1010.2
2016-Jul-18 16:33N 36°38' W 000°20'1010.4
2016-Jul-18 15:34N 36°36' W 000°32'1010.2
2016-Jul-18 14:33N 36°34' W 000°45'2210.6
2016-Jul-18 12:31N 36°31' W 001°11'1210.9
2016-Jul-18 11:24N 36°28' W 001°26'2010.5
2016-Jul-18 09:28N 36°25' W 001°51'3110.2
2016-Jul-18 06:25N 36°19' W 002°29'1910.2
2016-Jul-18 04:34N 36°17' W 002°52'11511.4
2016-Jul-17 18:27N 36°00' W 005°13'910.1
2016-Jul-17 17:34N 35°59' W 005°24'1211.1
2016-Jul-17 16:31N 35°55' W 005°37'1110.5
2016-Jul-17 15:27N 35°55' W 005°51'188 9.0
2016-Jul-16 18:33N 36°04' W 009°44'13511.1
2016-Jul-16 06:24N 36°11' W 012°31'6911.5
2016-Jul-16 00:23N 36°15' W 013°56'17211.5
2016-Jul-15 09:32N 36°25' W 017°29'3611.2
2016-Jul-15 06:18N 36°27' W 018°14'811.2
2016-Jul-15 05:33N 36°27' W 018°24'1111.0
2016-Jul-15 04:33N 36°28' W 018°38'  

Dump ship's entire track history